createdAt,value
2017-11-09T00:01:20.084Z,10.73
2017-11-09T00:03:53.820Z,10.48
2017-11-09T00:06:22.576Z,10.47
2017-11-09T00:08:51.725Z,10.39
2017-11-09T00:11:20.361Z,10.38
2017-11-09T00:13:49.510Z,10.47
2017-11-09T00:16:18.577Z,10.55
2017-11-09T00:18:47.680Z,10.59
2017-11-09T00:21:16.943Z,10.70
2017-11-09T00:23:46.251Z,10.71
2017-11-09T00:26:14.611Z,10.77
2017-11-09T00:28:43.092Z,10.68
2017-11-09T00:31:12.368Z,10.72
2017-11-09T00:33:40.903Z,10.92
2017-11-09T00:36:09.320Z,10.87
2017-11-09T00:38:37.674Z,10.65
2017-11-09T00:41:06.830Z,10.46
2017-11-09T00:43:35.392Z,10.47
2017-11-09T00:46:05.257Z,10.53
2017-11-09T00:48:33.608Z,10.67
2017-11-09T00:51:01.979Z,10.48
2017-11-09T00:53:31.147Z,10.67
2017-11-09T00:56:00.126Z,10.62
2017-11-09T00:58:29.779Z,10.63
2017-11-09T01:00:58.171Z,10.59
2017-11-09T01:03:26.573Z,10.63
2017-11-09T01:05:55.532Z,10.79
2017-11-09T01:08:24.513Z,10.89
2017-11-09T01:10:52.872Z,10.98
2017-11-09T01:13:21.969Z,11.02
2017-11-09T01:15:51.919Z,11.07
2017-11-09T01:18:20.504Z,10.95
2017-11-09T01:20:49.631Z,10.81
2017-11-09T01:23:17.978Z,10.69
2017-11-09T01:25:47.155Z,10.27
2017-11-09T01:28:15.700Z,10.34
2017-11-09T01:30:44.068Z,10.35
2017-11-09T01:33:15.929Z,10.40
2017-11-09T01:35:44.315Z,10.03
2017-11-09T01:38:12.881Z,9.77
2017-11-09T01:40:41.229Z,9.60
2017-11-09T01:43:09.829Z,9.73
2017-11-09T01:45:39.887Z,9.94
2017-11-09T01:48:08.235Z,10.15
2017-11-09T01:50:37.606Z,10.10
2017-11-09T01:53:05.968Z,9.98
2017-11-09T01:55:36.385Z,9.91
2017-11-09T01:58:04.764Z,9.67
2017-11-09T02:00:33.892Z,9.85
2017-11-09T02:03:02.252Z,9.85
2017-11-09T02:05:30.962Z,9.83
2017-11-09T02:07:59.303Z,9.78
2017-11-09T02:10:27.648Z,9.90
2017-11-09T02:12:57.551Z,10.06
2017-11-09T02:15:25.911Z,10.20
2017-11-09T02:17:56.184Z,10.31
2017-11-09T02:20:24.579Z,10.53
2017-11-09T02:22:54.386Z,10.53
2017-11-09T02:25:22.742Z,10.44
2017-11-09T02:27:51.925Z,10.32
2017-11-09T02:30:20.492Z,10.11
2017-11-09T02:32:49.065Z,9.95
2017-11-09T02:35:17.501Z,9.62
2017-11-09T02:37:45.859Z,9.51
2017-11-09T02:40:15.087Z,9.53
2017-11-09T02:42:44.264Z,9.83
2017-11-09T02:45:12.605Z,9.92
2017-11-09T02:47:40.955Z,9.84
2017-11-09T02:50:11.990Z,9.65
2017-11-09T02:52:40.370Z,9.79
2017-11-09T02:55:09.522Z,10.03
2017-11-09T02:57:38.076Z,10.05
2017-11-09T03:00:06.430Z,10.21
2017-11-09T03:02:36.718Z,10.37
2017-11-09T03:05:05.087Z,10.42
2017-11-09T03:07:33.463Z,10.32
2017-11-09T03:10:01.875Z,10.24
2017-11-09T03:12:30.307Z,10.37
2017-11-09T03:14:58.661Z,10.41
2017-11-09T03:17:28.333Z,10.31
2017-11-09T03:19:57.987Z,10.30
2017-11-09T03:22:26.336Z,10.29
2017-11-09T03:24:54.693Z,10.21
2017-11-09T03:27:23.070Z,10.38
2017-11-09T03:29:51.424Z,10.57
2017-11-09T03:32:19.773Z,10.58
2017-11-09T03:34:49.464Z,10.47
2017-11-09T03:37:19.276Z,10.43
2017-11-09T03:39:50.415Z,10.39
2017-11-09T03:42:18.791Z,10.39
2017-11-09T03:44:47.174Z,10.57
2017-11-09T03:47:15.561Z,10.45
2017-11-09T03:49:44.666Z,10.23
2017-11-09T03:52:14.669Z,10.18
2017-11-09T03:54:43.284Z,10.15
2017-11-09T03:57:12.483Z,10.06
2017-11-09T03:59:41.589Z,9.85
2017-11-09T04:02:11.155Z,9.97
2017-11-09T04:04:40.115Z,9.85
2017-11-09T04:07:08.551Z,9.85
2017-11-09T04:09:38.388Z,9.88
2017-11-09T04:12:06.755Z,9.87
2017-11-09T04:14:37.805Z,10.02
2017-11-09T04:17:07.159Z,9.96
2017-11-09T04:19:35.509Z,9.88
2017-11-09T04:22:03.866Z,9.93
2017-11-09T04:24:33.603Z,9.93
2017-11-09T04:27:01.955Z,9.92
2017-11-09T04:29:30.302Z,9.92
2017-11-09T04:31:58.671Z,9.93
2017-11-09T04:34:27.015Z,9.81
2017-11-09T04:36:55.402Z,9.57
2017-11-09T04:39:23.785Z,9.56
2017-11-09T04:41:52.140Z,9.74
2017-11-09T04:44:20.489Z,9.65
2017-11-09T04:46:49.700Z,9.64
2017-11-09T04:49:19.620Z,9.76
2017-11-09T04:51:47.953Z,9.93
2017-11-09T04:54:16.325Z,9.98
2017-11-09T04:56:45.584Z,9.78
2017-11-09T04:59:13.914Z,9.97
2017-11-09T05:01:44.237Z,9.96
2017-11-09T05:04:13.361Z,9.95
2017-11-09T05:06:42.489Z,9.82
2017-11-09T05:09:11.728Z,9.76
2017-11-09T05:11:40.083Z,9.78
2017-11-09T05:14:09.337Z,9.72
2017-11-09T05:16:38.168Z,9.63
2017-11-09T05:19:06.745Z,9.79
2017-11-09T05:21:35.097Z,9.65
2017-11-09T05:24:04.217Z,9.48
2017-11-09T05:26:32.558Z,9.39
2017-11-09T05:29:02.295Z,9.37
2017-11-09T05:31:31.407Z,9.39
2017-11-09T05:34:00.715Z,9.33
2017-11-09T05:36:29.058Z,9.33
2017-11-09T05:38:59.131Z,9.23
2017-11-09T05:41:27.590Z,9.29
2017-11-09T05:43:56.022Z,9.34
2017-11-09T05:46:24.416Z,9.28
2017-11-09T05:48:53.527Z,9.23
2017-11-09T05:51:21.889Z,9.36
2017-11-09T05:53:50.313Z,9.38
2017-11-09T05:56:18.646Z,9.50
2017-11-09T05:58:46.982Z,9.46
2017-11-09T06:01:15.366Z,9.28
2017-11-09T06:03:43.718Z,9.23
2017-11-09T06:06:12.071Z,9.09
2017-11-09T06:08:41.657Z,9.05
2017-11-09T06:11:09.995Z,9.23
2017-11-09T06:13:38.339Z,9.32
2017-11-09T06:16:07.030Z,9.29
2017-11-09T06:18:36.204Z,9.24
2017-11-09T06:21:05.411Z,9.36
2017-11-09T06:23:34.650Z,9.26
2017-11-09T06:26:03.278Z,9.09
2017-11-09T06:28:31.734Z,9.19
2017-11-09T06:31:00.233Z,9.04
2017-11-09T06:33:29.479Z,9.14
2017-11-09T06:35:58.321Z,9.08
2017-11-09T06:38:26.916Z,9.31
2017-11-09T06:40:56.046Z,9.44
2017-11-09T06:43:24.492Z,9.50
2017-11-09T06:45:52.909Z,9.74
2017-11-09T06:48:21.298Z,9.80
2017-11-09T06:50:49.802Z,9.71
2017-11-09T06:53:19.247Z,9.71
2017-11-09T06:55:48.546Z,9.65
2017-11-09T06:58:16.960Z,9.45
2017-11-09T07:00:45.734Z,9.34
2017-11-09T07:03:14.175Z,9.39
2017-11-09T07:05:42.538Z,9.40
2017-11-09T07:08:10.925Z,9.24
2017-11-09T07:10:39.336Z,9.44
2017-11-09T07:13:08.494Z,9.35
2017-11-09T07:15:37.630Z,9.74
2017-11-09T07:18:06.162Z,9.60
2017-11-09T07:20:35.453Z,9.28
2017-11-09T07:23:04.913Z,9.28
2017-11-09T07:25:33.298Z,9.41
2017-11-09T07:28:02.463Z,9.60
2017-11-09T07:30:30.996Z,9.48
2017-11-09T07:32:59.433Z,9.58
2017-11-09T07:35:28.751Z,9.58
2017-11-09T07:37:57.549Z,9.39
2017-11-09T07:40:26.697Z,9.28
2017-11-09T07:42:55.094Z,9.33
2017-11-09T07:45:23.678Z,9.51
2017-11-09T07:47:52.108Z,9.52
2017-11-09T07:50:20.564Z,9.54
2017-11-09T07:52:49.317Z,9.54
2017-11-09T07:55:17.796Z,9.60
2017-11-09T07:57:47.136Z,9.51
2017-11-09T08:00:16.107Z,9.84
2017-11-09T08:02:44.523Z,9.97
2017-11-09T08:05:14.019Z,9.93
2017-11-09T08:07:42.551Z,9.96
2017-11-09T08:10:10.883Z,9.97
2017-11-09T08:12:39.249Z,10.10
2017-11-09T08:15:07.626Z,9.85
2017-11-09T08:17:35.969Z,10.06
2017-11-09T08:20:06.002Z,10.14
2017-11-09T08:22:34.394Z,10.20
2017-11-09T08:25:06.687Z,10.32
2017-11-09T08:27:42.110Z,10.21
2017-11-09T08:30:13.451Z,10.23
2017-11-09T08:32:49.372Z,10.29
2017-11-09T08:35:17.728Z,9.73
2017-11-09T08:37:46.780Z,9.88
2017-11-09T08:40:15.154Z,10.27
2017-11-09T08:42:43.502Z,10.18
2017-11-09T08:45:12.275Z,10.20
2017-11-09T08:47:41.430Z,10.07
2017-11-09T08:50:09.772Z,10.19
2017-11-09T08:52:38.282Z,10.36
2017-11-09T08:55:06.781Z,10.46
2017-11-09T08:57:35.234Z,10.58
2017-11-09T09:00:03.592Z,10.35
2017-11-09T09:02:31.997Z,10.43
2017-11-09T09:05:00.340Z,10.31
2017-11-09T09:07:28.712Z,10.38
2017-11-09T09:09:57.918Z,10.39
2017-11-09T09:12:26.267Z,10.70
2017-11-09T09:14:56.215Z,10.53
2017-11-09T09:17:26.258Z,10.24
2017-11-09T09:19:55.227Z,10.29
2017-11-09T09:22:42.274Z,10.47
2017-11-09T09:25:21.222Z,10.48
2017-11-09T09:27:51.203Z,10.66
2017-11-09T09:30:33.695Z,10.48
2017-11-09T09:33:09.024Z,10.80
2017-11-09T09:35:41.876Z,10.56
2017-11-09T18:52:42.274Z,9.87
2017-11-09T18:55:10.769Z,9.98
2017-11-09T18:57:41.649Z,10.38
2017-11-09T19:00:10.579Z,10.22
2017-11-09T19:02:38.960Z,10.17
2017-11-09T19:05:07.356Z,10.18
2017-11-09T19:07:37.366Z,10.28
2017-11-09T19:10:06.555Z,10.16
2017-11-09T19:12:35.138Z,10.21
2017-11-09T19:15:03.676Z,10.06
2017-11-09T19:17:32.268Z,10.23
2017-11-09T19:20:01.568Z,10.16
2017-11-09T19:22:29.958Z,10.07
2017-11-09T19:24:58.320Z,9.85
2017-11-09T19:27:26.808Z,9.99
2017-11-09T19:29:55.424Z,9.81
2017-11-09T19:32:24.578Z,9.73
2017-11-09T19:34:52.926Z,9.77
2017-11-09T19:37:21.516Z,10.14
2017-11-09T19:39:51.340Z,9.93
2017-11-09T19:42:19.700Z,9.94
2017-11-09T19:44:48.945Z,9.98
2017-11-09T19:47:17.279Z,9.89
2017-11-09T19:49:46.407Z,10.07
2017-11-09T19:52:14.799Z,10.03
2017-11-09T19:54:43.975Z,9.86
2017-11-09T19:57:13.054Z,9.94
2017-11-09T19:59:42.316Z,10.03
2017-11-09T20:02:13.349Z,9.93
2017-11-09T20:04:41.722Z,9.91
2017-11-09T20:07:10.586Z,9.95
2017-11-09T20:09:38.964Z,10.12
2017-11-09T20:12:07.397Z,10.06
2017-11-09T20:14:35.790Z,10.26
2017-11-09T20:17:04.645Z,10.08
2017-11-09T20:19:35.007Z,10.10
2017-11-09T20:22:03.571Z,10.09
2017-11-09T20:24:32.268Z,10.04
2017-11-09T20:27:00.628Z,10.16
2017-11-09T20:29:29.987Z,9.96
2017-11-09T20:31:58.400Z,10.00
2017-11-09T20:34:26.772Z,10.04
2017-11-09T20:36:55.163Z,9.83
2017-11-09T20:39:24.295Z,9.91
2017-11-09T20:41:53.078Z,9.70
2017-11-09T20:44:23.259Z,9.86
2017-11-09T20:46:51.646Z,10.14
2017-11-09T20:49:19.998Z,10.24
2017-11-09T20:51:48.428Z,10.00
2017-11-09T20:54:17.187Z,10.16
2017-11-09T20:56:45.783Z,10.09
2017-11-09T20:59:14.174Z,10.17
2017-11-09T21:01:42.519Z,10.19
2017-11-09T21:04:10.899Z,10.17
2017-11-09T21:06:39.326Z,10.13
2017-11-09T21:09:07.678Z,9.93
2017-11-09T21:11:36.982Z,10.15
2017-11-09T21:14:05.861Z,9.87
2017-11-09T21:16:35.556Z,10.02
2017-11-09T21:19:03.929Z,10.35
2017-11-09T21:21:32.308Z,10.34
2017-11-09T21:24:00.959Z,10.08
2017-11-09T21:26:30.549Z,10.12
2017-11-09T21:28:59.911Z,9.97
2017-11-09T21:31:28.259Z,10.01
2017-11-09T21:33:57.381Z,10.35
2017-11-09T21:36:25.758Z,10.31
2017-11-09T21:38:54.325Z,10.33
2017-11-09T21:41:23.432Z,10.30
2017-11-09T21:43:53.390Z,10.12
2017-11-09T21:46:21.745Z,10.37
2017-11-09T21:48:50.742Z,10.47
2017-11-09T21:51:19.341Z,10.36
2017-11-09T21:53:48.405Z,10.48
2017-11-09T21:56:16.792Z,10.38
2017-11-09T21:58:45.781Z,10.70
2017-11-09T22:01:14.135Z,10.59
2017-11-09T22:03:43.262Z,10.35
2017-11-09T22:06:12.345Z,10.31
2017-11-09T22:08:40.950Z,10.54
2017-11-09T22:11:09.323Z,10.62
2017-11-09T22:13:37.756Z,10.42
2017-11-09T22:16:06.120Z,10.48
2017-11-09T22:18:34.493Z,10.51
2017-11-09T22:21:02.916Z,10.66
2017-11-09T22:23:32.107Z,10.83
2017-11-09T22:26:01.234Z,10.59
2017-11-09T22:28:29.620Z,10.72
2017-11-09T22:30:58.909Z,10.72
2017-11-09T22:33:28.031Z,10.77
2017-11-09T22:35:56.624Z,10.90
2017-11-09T22:38:25.795Z,10.63
2017-11-09T22:40:54.149Z,10.75
2017-11-09T22:43:23.300Z,10.69
2017-11-09T22:45:51.651Z,10.94
2017-11-09T22:48:21.386Z,10.74
2017-11-09T22:50:50.468Z,10.46
2017-11-09T22:53:20.506Z,10.70
2017-11-09T22:55:49.660Z,10.66
2017-11-09T22:58:18.106Z,10.84
2017-11-09T23:00:46.484Z,10.81
2017-11-09T23:03:15.789Z,10.84
2017-11-09T23:05:44.155Z,10.60
2017-11-09T23:08:13.348Z,10.70
2017-11-09T23:10:43.224Z,10.63
2017-11-09T23:13:11.595Z,10.67
2017-11-09T23:15:39.954Z,10.70
2017-11-09T23:18:08.980Z,10.65
2017-11-09T23:20:38.442Z,10.90
2017-11-09T23:23:07.414Z,10.79
2017-11-09T23:25:35.759Z,10.71
2017-11-09T23:28:04.138Z,10.78
2017-11-09T23:30:32.483Z,10.61
2017-11-09T23:33:01.123Z,10.80
2017-11-09T23:35:30.040Z,10.99
2017-11-09T23:37:58.430Z,11.00
2017-11-09T23:40:26.780Z,10.69
2017-11-09T23:42:56.526Z,10.65
2017-11-09T23:45:26.563Z,11.04
2017-11-09T23:47:55.986Z,11.34
2017-11-09T23:50:24.984Z,11.57
2017-11-09T23:52:54.436Z,11.49
2017-11-09T23:55:23.078Z,11.43
2017-11-09T23:57:51.764Z,11.41
